createdAt,value
2019-03-15T00:01:42.553Z,7.80
2019-03-15T00:04:11.256Z,7.80
2019-03-15T00:06:41.617Z,7.70
2019-03-15T00:09:09.715Z,7.70
2019-03-15T00:11:38.146Z,7.70
2019-03-15T00:14:06.526Z,7.70
2019-03-15T00:16:34.919Z,7.80
2019-03-15T00:19:03.457Z,7.80
2019-03-15T00:21:31.844Z,7.70
2019-03-15T00:24:00.286Z,7.70
2019-03-15T00:26:29.409Z,7.70
2019-03-15T00:28:57.845Z,7.70
2019-03-15T00:31:26.144Z,7.60
2019-03-15T00:33:57.717Z,7.60
2019-03-15T00:36:26.096Z,7.60
2019-03-15T00:38:54.776Z,7.60
2019-03-15T00:41:24.902Z,7.50
2019-03-15T00:43:54.076Z,7.70
2019-03-15T00:46:22.484Z,7.70
2019-03-15T00:48:50.993Z,7.70
2019-03-15T00:51:19.375Z,7.60
2019-03-15T00:53:47.774Z,7.70
2019-03-15T00:56:18.127Z,7.70
2019-03-15T00:58:47.095Z,7.60
2019-03-15T01:01:16.327Z,7.50
2019-03-15T01:03:44.807Z,7.50
2019-03-15T01:06:13.154Z,7.50
2019-03-15T01:08:41.552Z,7.50
2019-03-15T01:11:10.035Z,7.60
2019-03-15T01:13:38.391Z,7.70
2019-03-15T01:16:06.773Z,7.70
2019-03-15T01:18:35.509Z,7.70
2019-03-15T01:21:05.940Z,7.70
2019-03-15T01:23:34.111Z,7.80
2019-03-15T01:26:02.613Z,7.80
2019-03-15T01:28:31.342Z,7.80
2019-03-15T01:30:59.734Z,7.70
2019-03-15T01:33:28.374Z,7.80
2019-03-15T01:35:56.723Z,7.80
2019-03-15T01:38:25.156Z,7.80
2019-03-15T01:40:53.558Z,7.90
2019-03-15T01:43:21.959Z,7.90
2019-03-15T01:45:50.348Z,8.00
2019-03-15T01:48:19.068Z,8.00
2019-03-15T01:50:47.485Z,8.10
2019-03-15T01:53:15.850Z,8.00
2019-03-15T01:55:44.362Z,8.10
2019-03-15T01:58:12.711Z,8.00
2019-03-15T02:00:41.038Z,8.10
2019-03-15T02:03:09.540Z,8.00
2019-03-15T02:05:38.052Z,8.00
2019-03-15T02:08:06.687Z,8.00
2019-03-15T02:10:35.153Z,7.90
2019-03-15T02:13:04.283Z,7.90
2019-03-15T02:15:32.707Z,7.70
2019-03-15T02:18:01.075Z,7.70
2019-03-15T02:20:29.561Z,7.70
2019-03-15T02:22:58.347Z,7.70
2019-03-15T02:25:27.486Z,7.70
2019-03-15T02:27:56.132Z,7.70
2019-03-15T02:30:24.779Z,7.70
2019-03-15T02:32:53.314Z,7.80
2019-03-15T02:35:21.723Z,7.80
2019-03-15T02:37:50.187Z,7.90
2019-03-15T02:40:18.688Z,7.90
2019-03-15T02:42:47.187Z,7.90
2019-03-15T02:45:15.753Z,8.00
2019-03-15T02:47:44.259Z,8.10
2019-03-15T02:50:12.711Z,8.00
2019-03-15T02:52:42.327Z,8.00
2019-03-15T02:55:11.061Z,8.10
2019-03-15T02:57:39.464Z,7.90
2019-03-15T03:00:09.219Z,7.90
2019-03-15T03:02:37.571Z,8.00
2019-03-15T03:05:08.532Z,8.00
2019-03-15T03:07:37.017Z,8.00
2019-03-15T03:10:07.336Z,7.90
2019-03-15T03:12:36.837Z,8.00
2019-03-15T03:15:06.616Z,8.00
2019-03-15T03:17:35.160Z,8.00
2019-03-15T03:20:05.795Z,8.00
2019-03-15T03:22:34.250Z,8.00
2019-03-15T03:25:02.921Z,8.00
2019-03-15T03:27:34.916Z,8.10
2019-03-15T03:30:03.476Z,8.10
2019-03-15T03:32:31.915Z,8.00
2019-03-15T03:35:00.710Z,8.10
2019-03-15T03:37:29.373Z,8.00
2019-03-15T03:39:57.846Z,8.00
2019-03-15T03:42:26.265Z,7.90
2019-03-15T03:44:54.716Z,7.80
2019-03-15T03:47:23.168Z,7.70
2019-03-15T03:49:51.610Z,7.50
2019-03-15T03:52:20.161Z,7.40
2019-03-15T03:54:48.620Z,7.50
2019-03-15T03:57:17.089Z,7.50
2019-03-15T03:59:45.573Z,7.50
2019-03-15T04:02:13.913Z,7.40
2019-03-15T04:04:42.561Z,7.50
2019-03-15T04:07:10.893Z,7.50
2019-03-15T04:09:39.476Z,7.60
2019-03-15T04:12:07.879Z,7.60
2019-03-15T04:14:36.269Z,7.50
2019-03-15T04:17:07.235Z,7.40
2019-03-15T04:19:35.686Z,7.50
2019-03-15T04:22:04.160Z,7.60
2019-03-15T04:24:32.699Z,7.60
2019-03-15T04:27:01.121Z,7.60
2019-03-15T04:29:29.535Z,7.60
2019-03-15T04:31:58.082Z,7.70
2019-03-15T04:34:28.385Z,7.70
2019-03-15T04:36:57.232Z,7.70
2019-03-15T04:39:25.626Z,7.70
2019-03-15T04:41:54.086Z,7.70
2019-03-15T04:44:22.409Z,7.80
2019-03-15T04:46:53.541Z,7.80
2019-03-15T04:49:21.974Z,7.70
2019-03-15T04:51:50.316Z,7.80
2019-03-15T04:54:18.894Z,7.80
2019-03-15T04:56:47.756Z,7.80
2019-03-15T04:59:18.059Z,7.80
2019-03-15T05:01:46.939Z,7.80
2019-03-15T05:04:15.448Z,7.80
2019-03-15T05:06:45.436Z,7.80
2019-03-15T05:09:13.978Z,7.70
2019-03-15T05:11:43.078Z,7.80
2019-03-15T05:14:11.629Z,7.70
2019-03-15T05:16:40.132Z,7.70
2019-03-15T05:19:08.663Z,7.80
2019-03-15T05:21:37.278Z,7.80
2019-03-15T05:24:05.677Z,7.60
2019-03-15T05:26:34.292Z,7.70
2019-03-15T05:29:02.927Z,7.80
2019-03-15T05:31:34.134Z,7.80
2019-03-15T05:34:02.808Z,7.70
2019-03-15T05:36:31.222Z,7.60
2019-03-15T05:38:59.815Z,7.50
2019-03-15T05:41:28.652Z,7.50
2019-03-15T05:43:57.311Z,7.50
2019-03-15T05:46:25.867Z,7.50
2019-03-15T05:48:54.381Z,7.50
2019-03-15T05:51:22.969Z,7.60
2019-03-15T05:53:51.349Z,7.60
2019-03-15T05:56:19.795Z,7.50
2019-03-15T05:58:48.392Z,7.60
2019-03-15T06:01:16.896Z,7.70
2019-03-15T06:03:48.965Z,7.70
2019-03-15T06:06:15.543Z,7.70
2019-03-15T06:08:44.215Z,7.70
2019-03-15T06:11:12.689Z,7.80
2019-03-15T06:13:41.229Z,7.90
2019-03-15T06:16:09.731Z,7.90
2019-03-15T06:18:38.166Z,7.90
2019-03-15T06:21:06.627Z,7.80
2019-03-15T06:23:35.277Z,7.60
2019-03-15T06:26:03.724Z,7.60
2019-03-15T06:28:32.168Z,7.70
2019-03-15T06:31:00.666Z,7.80
2019-03-15T06:33:29.163Z,7.70
2019-03-15T06:35:57.680Z,7.70
2019-03-15T06:38:26.232Z,7.70
2019-03-15T06:40:54.710Z,7.70
2019-03-15T06:43:23.167Z,7.70
2019-03-15T06:45:51.721Z,7.80
2019-03-15T06:48:20.256Z,7.80
2019-03-15T06:50:48.784Z,7.80
2019-03-15T06:53:17.155Z,7.90
2019-03-15T06:55:45.717Z,8.00
2019-03-15T06:58:14.139Z,8.00
2019-03-15T07:00:45.369Z,8.00
2019-03-15T07:03:13.750Z,8.00
2019-03-15T07:05:42.281Z,8.10
2019-03-15T07:08:10.660Z,8.20
2019-03-15T07:10:39.594Z,8.20
2019-03-15T07:13:08.159Z,8.20
2019-03-15T07:15:36.818Z,8.20
2019-03-15T07:18:05.307Z,8.20
2019-03-15T07:20:33.888Z,8.20
2019-03-15T07:23:02.351Z,8.30
2019-03-15T07:25:30.908Z,8.30
2019-03-15T07:27:59.316Z,8.30
2019-03-15T07:30:27.714Z,8.50
2019-03-15T07:32:56.599Z,8.50
2019-03-15T07:35:25.142Z,8.50
2019-03-15T07:37:53.578Z,8.40
2019-03-15T07:40:23.694Z,8.50
2019-03-15T07:42:52.254Z,8.60
2019-03-15T07:45:21.081Z,8.70
2019-03-15T07:47:49.530Z,8.70
2019-03-15T07:50:18.125Z,8.70
2019-03-15T07:52:46.536Z,8.70
2019-03-15T07:55:14.984Z,8.70
2019-03-15T07:57:43.408Z,8.70
2019-03-15T08:00:15.846Z,8.80
2019-03-15T08:02:44.227Z,9.00
2019-03-15T08:05:12.675Z,9.10
2019-03-15T08:07:45.611Z,9.10
2019-03-15T08:10:13.323Z,9.20
2019-03-15T08:12:41.868Z,9.10
2019-03-15T08:15:11.527Z,9.20
2019-03-15T08:17:40.010Z,9.20
2019-03-15T08:20:12.658Z,9.10
2019-03-15T08:22:41.107Z,9.10
2019-03-15T08:25:10.907Z,9.10
2019-03-15T08:27:39.338Z,9.20
2019-03-15T08:30:14.384Z,9.10
2019-03-15T08:32:43.950Z,9.00
2019-03-15T08:35:13.351Z,9.00
2019-03-15T08:37:41.819Z,9.10
2019-03-15T08:40:11.465Z,9.00
2019-03-15T08:42:40.038Z,9.00
2019-03-15T08:45:14.402Z,9.00
2019-03-15T08:47:42.884Z,9.10
2019-03-15T08:50:15.487Z,9.20
2019-03-15T08:52:44.147Z,9.30
2019-03-15T08:55:13.666Z,9.40
2019-03-15T08:57:42.170Z,9.40
2019-03-15T09:00:13.964Z,9.50
2019-03-15T09:05:11.752Z,9.70
2019-03-15T09:07:40.133Z,9.70
2019-03-15T09:10:22.011Z,9.80
2019-03-15T09:12:41.827Z,9.70
2019-03-15T09:15:11.240Z,9.80
2019-03-15T09:17:39.669Z,9.80
2019-03-15T09:20:09.879Z,9.80
2019-03-15T09:22:38.013Z,9.80
2019-03-15T09:25:19.271Z,9.80
2019-03-15T09:27:39.556Z,9.80
2019-03-15T09:30:23.305Z,9.90
2019-03-15T09:32:44.342Z,10.00
2019-03-15T09:35:12.741Z,10.10
2019-03-15T09:37:41.138Z,10.10
2019-03-15T09:40:14.512Z,10.10
2019-03-15T09:42:43.060Z,10.20
2019-03-15T09:45:14.770Z,10.10
2019-03-15T09:47:43.252Z,10.10
2019-03-15T09:50:26.661Z,10.20
2019-03-15T09:52:46.473Z,10.10
2019-03-15T09:55:15.073Z,10.20
2019-03-15T09:57:43.604Z,10.20
2019-03-15T10:00:16.904Z,10.10
2019-03-15T10:02:45.529Z,10.10
2019-03-15T10:05:13.981Z,10.20
2019-03-15T10:07:43.651Z,10.30
2019-03-15T10:10:18.966Z,10.30
2019-03-15T10:12:47.349Z,10.40
2019-03-15T10:15:16.481Z,10.50
2019-03-15T10:17:44.874Z,10.60
2019-03-15T10:20:13.795Z,10.60
2019-03-15T10:22:42.193Z,10.70
2019-03-15T10:25:15.531Z,10.80
2019-03-15T10:27:44.037Z,10.90
2019-03-15T10:30:21.886Z,10.90
2019-03-15T10:32:50.343Z,11.00
2019-03-15T10:35:18.762Z,11.20
2019-03-15T10:37:47.150Z,11.40
2019-03-15T10:40:20.247Z,11.60
2019-03-15T10:42:48.676Z,11.50
2019-03-15T10:45:17.162Z,11.20
2019-03-15T10:47:45.631Z,11.20
2019-03-15T10:50:20.384Z,11.20
2019-03-15T10:52:48.894Z,11.30
2019-03-15T10:55:20.490Z,11.30
2019-03-15T10:57:47.386Z,11.40
2019-03-15T11:00:18.665Z,11.40
2019-03-15T11:02:47.030Z,11.30
2019-03-15T11:05:15.473Z,11.20
2019-03-15T11:07:43.965Z,11.10
2019-03-15T11:10:13.029Z,11.20
2019-03-15T11:12:41.609Z,11.10
2019-03-15T11:15:14.276Z,11.20
2019-03-15T11:17:42.742Z,11.20
2019-03-15T11:20:11.973Z,11.40
2019-03-15T11:22:40.390Z,11.50
2019-03-15T11:25:10.068Z,11.50
2019-03-15T11:27:38.574Z,11.30
2019-03-15T11:30:12.540Z,11.30
2019-03-15T11:32:41.319Z,11.40
2019-03-15T11:35:10.408Z,11.60
2019-03-15T11:37:38.900Z,11.60
2019-03-15T11:40:14.651Z,11.50
2019-03-15T11:42:43.168Z,11.60
2019-03-15T11:45:12.579Z,11.70
2019-03-15T11:48:01.267Z,11.60
2019-03-15T11:50:17.710Z,11.50
2019-03-15T11:52:46.221Z,11.40
2019-03-15T11:55:14.673Z,11.40
2019-03-15T11:57:43.097Z,11.20
2019-03-15T12:00:16.401Z,11.10
2019-03-15T12:02:44.865Z,11.20
2019-03-15T12:05:13.235Z,11.30
2019-03-15T12:07:41.786Z,11.40
2019-03-15T12:10:12.718Z,11.40
2019-03-15T12:12:41.122Z,11.50
2019-03-15T12:15:14.849Z,11.50
2019-03-15T12:17:43.265Z,11.60
2019-03-15T12:20:12.740Z,11.60
2019-03-15T12:22:41.287Z,11.70
2019-03-15T12:25:10.441Z,11.80
2019-03-15T12:27:38.893Z,11.80
2019-03-15T12:30:10.248Z,11.80
2019-03-15T12:32:38.792Z,11.80
2019-03-15T12:35:09.992Z,11.60
2019-03-15T12:37:38.493Z,11.50
2019-03-15T12:40:09.461Z,11.40
2019-03-15T12:42:39.555Z,11.50
2019-03-15T12:45:09.915Z,11.50
2019-03-15T12:47:37.622Z,11.50
2019-03-15T12:50:08.353Z,11.50
2019-03-15T12:52:46.383Z,11.40
2019-03-15T12:55:12.074Z,11.10
2019-03-15T12:57:40.508Z,11.00
2019-03-15T13:00:16.443Z,11.00
2019-03-15T13:02:44.987Z,11.00
2019-03-15T13:05:13.422Z,11.00
2019-03-15T13:07:41.845Z,11.10
2019-03-15T13:10:16.282Z,11.20
2019-03-15T13:12:44.701Z,11.30
2019-03-15T13:15:16.745Z,11.40
2019-03-15T13:17:45.250Z,11.20
2019-03-15T13:20:17.343Z,11.10
2019-03-15T13:22:45.833Z,11.10
2019-03-15T13:25:14.203Z,11.10
2019-03-15T13:27:42.551Z,11.20
2019-03-15T13:30:12.677Z,11.30
2019-03-15T13:32:41.076Z,11.30
2019-03-15T13:35:09.597Z,11.40
2019-03-15T13:37:42.485Z,11.40
2019-03-15T13:40:17.595Z,11.30
2019-03-15T13:42:45.997Z,11.30
2019-03-15T13:45:15.133Z,11.10
2019-03-15T13:47:43.510Z,10.90
2019-03-15T13:50:17.235Z,10.70
2019-03-15T13:52:45.702Z,10.70
2019-03-15T13:55:14.143Z,10.50
2019-03-15T13:57:42.586Z,10.50
2019-03-15T14:00:16.787Z,10.50
2019-03-15T14:02:45.405Z,10.70
2019-03-15T14:05:13.873Z,10.70
2019-03-15T14:07:42.258Z,10.60
2019-03-15T14:10:14.403Z,10.60
2019-03-15T14:12:42.782Z,10.60
2019-03-15T14:15:13.325Z,10.50
2019-03-15T14:17:41.806Z,10.50
2019-03-15T14:20:11.592Z,10.30
2019-03-15T14:22:40.117Z,10.20
2019-03-15T14:25:16.412Z,10.20
2019-03-15T14:27:44.925Z,10.10
2019-03-15T14:30:13.929Z,10.10
2019-03-15T14:32:42.396Z,10.10
2019-03-15T14:35:10.792Z,10.00
2019-03-15T14:37:39.350Z,9.90
2019-03-15T14:40:11.764Z,9.90
2019-03-15T14:42:40.512Z,9.90
2019-03-15T14:45:10.990Z,9.90
2019-03-15T14:47:39.414Z,9.90
2019-03-15T14:50:09.586Z,9.80
2019-03-15T14:52:37.952Z,9.80
2019-03-15T14:55:08.569Z,9.80
2019-03-15T14:57:50.519Z,9.80
2019-03-15T15:00:12.063Z,9.70
2019-03-15T15:02:40.601Z,9.70
2019-03-15T15:05:11.008Z,9.60
2019-03-15T15:07:39.434Z,9.50
2019-03-15T15:10:12.804Z,9.50
2019-03-15T15:12:41.366Z,9.50
2019-03-15T15:15:20.450Z,9.50
2019-03-15T15:17:48.981Z,9.50
2019-03-15T15:20:17.290Z,9.40
2019-03-15T15:22:45.907Z,9.40
2019-03-15T15:25:16.409Z,9.40
2019-03-15T15:27:44.823Z,9.40
2019-03-15T15:30:14.700Z,9.50
2019-03-15T15:32:43.101Z,9.50
2019-03-15T15:35:12.129Z,9.40
2019-03-15T15:37:40.528Z,9.40
2019-03-15T15:40:18.148Z,9.50
2019-03-15T15:42:46.755Z,9.60
2019-03-15T15:45:15.148Z,9.60
2019-03-15T15:47:43.604Z,9.70
2019-03-15T15:50:14.401Z,9.80
2019-03-15T15:52:42.904Z,9.80
2019-03-15T15:55:13.800Z,9.80
2019-03-15T15:57:42.333Z,9.80
2019-03-15T16:00:15.546Z,9.80
2019-03-15T16:02:43.951Z,9.80
2019-03-15T16:05:12.442Z,9.80
2019-03-15T16:07:41.015Z,9.80
2019-03-15T16:10:13.764Z,9.90
2019-03-15T16:12:42.262Z,10.00
2019-03-15T16:15:13.088Z,10.10
2019-03-15T16:17:41.531Z,10.20
2019-03-15T16:20:10.601Z,10.20
2019-03-15T16:22:39.087Z,10.20
2019-03-15T16:25:08.883Z,10.20
2019-03-15T16:27:37.537Z,10.20
2019-03-15T16:30:09.451Z,10.30
2019-03-15T16:32:37.966Z,10.30
2019-03-15T16:35:08.879Z,10.40
2019-03-15T16:37:37.467Z,10.40
2019-03-15T16:40:08.535Z,10.50
2019-03-15T16:42:37.291Z,10.60
2019-03-15T16:45:11.404Z,10.60
2019-03-15T16:47:39.880Z,10.60
2019-03-15T16:50:12.514Z,10.60
2019-03-15T16:52:41.050Z,10.60
2019-03-15T16:55:12.205Z,10.60
2019-03-15T16:57:40.658Z,10.60
2019-03-15T17:00:15.963Z,10.60
2019-03-15T17:02:44.378Z,10.70
2019-03-15T17:05:13.493Z,10.50
2019-03-15T17:07:42.327Z,10.60
2019-03-15T17:10:16.230Z,10.50
2019-03-15T17:12:44.815Z,10.60
2019-03-15T17:15:17.861Z,10.50
2019-03-15T17:17:46.365Z,10.50
2019-03-15T17:20:14.874Z,10.50
2019-03-15T17:22:43.294Z,10.60
2019-03-15T17:25:12.238Z,10.60
2019-03-15T17:27:40.817Z,10.70
2019-03-15T17:30:15.833Z,10.70
2019-03-15T17:32:44.383Z,10.60
2019-03-15T17:35:19.881Z,10.70
2019-03-15T17:37:48.410Z,10.70
2019-03-15T17:40:17.768Z,10.80
2019-03-15T17:42:46.185Z,10.80
2019-03-15T17:45:14.625Z,10.80
2019-03-15T17:47:42.932Z,10.80
2019-03-15T17:50:16.297Z,10.90
2019-03-15T17:52:44.742Z,10.80
2019-03-15T17:55:14.258Z,10.80
2019-03-15T17:57:45.388Z,10.70
2019-03-15T18:00:13.374Z,10.80
2019-03-15T18:02:41.774Z,10.90
2019-03-15T18:05:10.325Z,10.80
2019-03-15T18:07:38.885Z,10.80
2019-03-15T18:10:07.949Z,10.90
2019-03-15T18:12:36.393Z,10.80
2019-03-15T18:15:06.935Z,10.80
2019-03-15T18:17:35.318Z,10.90
2019-03-15T18:20:06.727Z,10.90
2019-03-15T18:22:35.199Z,10.90
2019-03-15T18:25:04.893Z,10.90
2019-03-15T18:27:33.241Z,10.80
2019-03-15T18:30:01.585Z,10.80
2019-03-15T18:32:29.976Z,10.90
2019-03-15T18:34:58.373Z,10.90
2019-03-15T18:37:26.752Z,10.90
2019-03-15T18:39:55.404Z,10.90
2019-03-15T18:42:23.885Z,10.80
2019-03-15T18:44:52.370Z,10.80
2019-03-15T18:47:20.814Z,10.70
2019-03-15T18:49:49.174Z,10.70
2019-03-15T18:52:17.618Z,10.70
2019-03-15T18:54:46.174Z,10.70
2019-03-15T18:57:14.751Z,10.60
2019-03-15T18:59:43.262Z,10.60
2019-03-15T19:02:11.716Z,10.70
2019-03-15T19:04:40.121Z,10.70
2019-03-15T19:07:08.539Z,10.70
2019-03-15T19:09:40.387Z,10.70
2019-03-15T19:12:08.774Z,10.70
2019-03-15T19:14:38.237Z,10.70
2019-03-15T19:17:06.540Z,10.70
2019-03-15T19:19:34.973Z,10.70
2019-03-15T19:22:04.511Z,10.70
2019-03-15T19:24:32.893Z,10.60
2019-03-15T19:27:01.196Z,10.60
2019-03-15T19:29:29.586Z,10.60
2019-03-15T19:32:06.871Z,10.60
2019-03-15T19:34:35.485Z,10.50
2019-03-15T19:37:15.663Z,10.50
2019-03-15T19:39:41.368Z,10.40
2019-03-15T19:42:09.750Z,10.30
2019-03-15T19:44:38.129Z,10.40
2019-03-15T19:47:06.526Z,10.30
2019-03-15T19:49:34.929Z,10.20
2019-03-15T19:52:03.281Z,10.20
2019-03-15T19:54:32.030Z,10.20
2019-03-15T19:57:00.465Z,10.10
2019-03-15T19:59:28.831Z,10.10
2019-03-15T20:01:57.272Z,10.10
2019-03-15T20:04:25.697Z,10.00
2019-03-15T20:06:54.094Z,10.00
2019-03-15T20:09:22.500Z,9.90
2019-03-15T20:11:51.293Z,9.90
2019-03-15T20:14:19.978Z,9.90
2019-03-15T20:16:48.307Z,9.80
2019-03-15T20:19:16.720Z,9.90
2019-03-15T20:21:45.089Z,9.80
2019-03-15T20:24:13.620Z,9.80
2019-03-15T20:26:41.989Z,9.70
2019-03-15T20:29:10.395Z,9.70
2019-03-15T20:31:38.810Z,9.70
2019-03-15T20:34:07.238Z,9.70
2019-03-15T20:36:35.737Z,9.60
2019-03-15T20:39:05.907Z,9.50
2019-03-15T20:41:34.317Z,9.50
2019-03-15T20:44:02.766Z,9.40
2019-03-15T20:46:35.950Z,9.50
2019-03-15T20:49:01.312Z,9.40
2019-03-15T20:51:29.695Z,9.40
2019-03-15T20:53:58.059Z,9.30
2019-03-15T20:56:26.464Z,9.30
2019-03-15T20:58:54.885Z,9.20
2019-03-15T21:01:23.284Z,9.30
2019-03-15T21:03:56.230Z,9.30
2019-03-15T21:06:21.816Z,9.20
2019-03-15T21:08:50.241Z,9.20
2019-03-15T21:11:18.800Z,9.20
2019-03-15T21:13:47.088Z,9.30
2019-03-15T21:16:18.126Z,9.20
2019-03-15T21:18:45.500Z,9.20
2019-03-15T21:21:14.028Z,9.30
2019-03-15T21:23:42.408Z,9.20
2019-03-15T21:26:10.863Z,9.20
2019-03-15T21:28:39.285Z,9.10
2019-03-15T21:31:07.772Z,9.10
2019-03-15T21:33:36.177Z,9.10
2019-03-15T21:36:04.593Z,9.10
2019-03-15T21:38:33.005Z,9.10
2019-03-15T21:41:01.518Z,9.10
2019-03-15T21:43:29.966Z,9.10
2019-03-15T21:45:58.593Z,9.10
2019-03-15T21:48:27.075Z,9.00
2019-03-15T21:50:55.627Z,9.00
2019-03-15T21:53:24.166Z,9.00
2019-03-15T21:55:52.590Z,9.00
2019-03-15T21:58:22.448Z,9.00
2019-03-15T22:01:01.610Z,8.90
2019-03-15T22:03:21.310Z,8.80
2019-03-15T22:05:54.350Z,8.90
2019-03-15T22:08:22.754Z,8.90
2019-03-15T22:10:51.157Z,8.80
2019-03-15T22:13:19.585Z,8.80
2019-03-15T22:15:48.049Z,8.80
2019-03-15T22:18:16.417Z,8.80
2019-03-15T22:20:44.794Z,8.80
2019-03-15T22:23:13.637Z,8.80
2019-03-15T22:25:42.077Z,8.80
2019-03-15T22:28:10.496Z,8.80
2019-03-15T22:30:38.932Z,8.80
2019-03-15T22:33:07.390Z,8.70
2019-03-15T22:35:35.956Z,8.70
2019-03-15T22:38:04.373Z,8.70
2019-03-15T22:40:32.920Z,8.70
2019-03-15T22:43:01.339Z,8.80
2019-03-15T22:45:29.843Z,8.70
2019-03-15T22:47:58.275Z,8.60
2019-03-15T22:50:26.812Z,8.60
2019-03-15T22:52:55.320Z,8.60
2019-03-15T22:55:23.865Z,8.60
2019-03-15T22:57:59.702Z,8.60
2019-03-15T23:00:26.668Z,8.60
2019-03-15T23:02:55.302Z,8.60
2019-03-15T23:05:23.712Z,8.50
2019-03-15T23:07:52.232Z,8.50
2019-03-15T23:10:20.663Z,8.60
2019-03-15T23:12:49.346Z,8.50
2019-03-15T23:15:17.906Z,8.50
2019-03-15T23:17:46.363Z,8.50
2019-03-15T23:20:14.864Z,8.60
2019-03-15T23:22:43.230Z,8.50
2019-03-15T23:25:11.668Z,8.50
2019-03-15T23:27:40.049Z,8.50
2019-03-15T23:30:11.229Z,8.50
2019-03-15T23:32:39.739Z,8.40
2019-03-15T23:35:08.139Z,8.40
2019-03-15T23:37:36.594Z,8.40
2019-03-15T23:40:10.333Z,8.40
2019-03-15T23:42:40.628Z,8.40
2019-03-15T23:45:08.748Z,8.40
2019-03-15T23:47:37.362Z,8.30
2019-03-15T23:50:15.181Z,8.30
2019-03-15T23:52:43.712Z,8.30
2019-03-15T23:55:12.397Z,8.40
2019-03-15T23:57:40.774Z,8.40
